Pratt, Minnesota
Current Conditions -  °F | °C
As of 4:15 PM on Wednesday 28 Jan 2015 (Local Time) from KOWA Reporting Station
Haze Haze  
Wind Chill: -4°   Ceiling: Unl
Heat Index:   Visibility: 5mi
Dew Point: -2°   Wind: 13mph
Humidity: 81%   Direction: 140°SE
Pressure: 29.77"   Gusts: NA
Location:  44.0575°N, 93.2082°W
Report Text: KOWA 282215Z AUTO 14011KT 5SM HZ CLR 01/M02 A2977 RMK AO2
Loading
Personal Weather Stations






























Interactive Weather Map New forecast layout! Learn more

10-Day Weather Forecast

Advertisements
Track Severe Weather on mobile